Time;durP1;ratioP1;P1;durP2;ratioP2;P2;SDS_P1;SDS_P2;PMS_P1;PMS_P2;Temp;Humidity;BMP_temperature;BMP_pressure;BME280_temperature;BME280_humidity;BME280_pressure;Samples;Min_cycle;Max_cycle;Signal;HPM_P1;HPM_P2
2021/12/16 00:29:01;;;;;;;1.33;0.90;;;;;;;15.29;41.83;97701.72;5035225;28;20067;-28
2021/12/16 00:31:29;;;;;;;1.55;1.10;;;;;;;15.30;41.71;97698.56;4998273;28;20030;-28
2021/12/16 00:34:01;;;;;;;1.88;1.20;;;;;;;15.26;41.81;97692.41;5035109;28;20025;-28
2021/12/16 00:36:30;;;;;;;1.80;1.08;;;;;;;15.21;41.89;97687.44;5035044;28;20034;-28
2021/12/16 00:38:56;;;;;;;1.67;1.10;;;;;;;15.26;41.85;97689.66;5034803;28;20429;-28
2021/12/16 00:41:22;;;;;;;1.52;0.90;;;;;;;15.17;41.91;97696.94;5035150;28;20053;-28
2021/12/16 00:44:02;;;;;;;2.30;1.20;;;;;;;15.19;41.93;97697.28;5034744;28;20110;-28
2021/12/16 00:49:18;;;;;;;1.60;1.10;;;;;;;15.15;41.98;97680.19;5034239;28;20017;-28
2021/12/16 00:54:29;;;;;;;2.13;1.20;;;;;;;15.16;41.93;97673.53;5034663;28;20036;-28
2021/12/16 00:57:01;;;;;;;1.48;1.13;;;;;;;15.20;42.01;97672.25;5034524;28;20021;-28
2021/12/16 00:59:32;;;;;;;1.48;1.10;;;;;;;15.16;42.06;97674.28;5034193;28;20049;-28
2021/12/16 01:05:09;;;;;;;2.65;1.02;;;;;;;15.12;42.01;97687.25;5034283;28;20111;-28
2021/12/16 01:35:26;;;;;;;1.42;1.00;;;;;;;15.11;42.17;97729.44;5021722;28;20097;-28
2021/12/16 01:46:21;;;;;;;2.15;1.10;;;;;;;15.08;42.16;97739.25;5033525;28;20502;-28
2021/12/16 01:51:20;;;;;;;1.30;1.20;;;;;;;15.09;42.10;97731.81;5034132;28;20474;-28
2021/12/16 01:59:01;;;;;;;1.40;1.00;;;;;;;15.06;42.09;97727.22;5033565;28;20460;-28
2021/12/16 02:01:31;;;;;;;2.30;1.00;;;;;;;15.13;41.94;97721.59;5032760;28;20029;-28
2021/12/16 02:04:17;;;;;;;1.75;1.10;;;;;;;15.09;41.94;97729.84;5032553;28;20120;-28
2021/12/16 02:07:11;;;;;;;1.23;0.95;;;;;;;15.09;42.25;97723.63;5033526;28;20379;-28
2021/12/16 02:09:40;;;;;;;1.63;1.10;;;;;;;15.09;42.09;97721.66;5033284;28;20104;-28
2021/12/16 02:36:43;;;;;;;1.20;1.10;;;;;;;14.93;42.26;97697.06;5031239;28;20053;-28
2021/12/16 02:39:21;;;;;;;1.55;1.10;;;;;;;15.00;42.22;97694.16;5030999;28;20040;-28
2021/12/16 02:41:53;;;;;;;2.03;1.45;;;;;;;14.94;42.43;97697.84;5031144;28;20029;-28
2021/12/16 02:49:51;;;;;;;1.05;0.95;;;;;;;14.90;42.38;97692.44;5030830;28;20079;-28
2021/12/16 02:52:19;;;;;;;1.80;1.20;;;;;;;14.87;42.78;97692.50;5030853;28;20025;-28
2021/12/16 02:54:45;;;;;;;1.73;1.20;;;;;;;14.92;42.27;97690.06;5030948;28;20029;-28
2021/12/16 02:57:12;;;;;;;1.30;1.00;;;;;;;14.89;42.33;97693.63;5030368;28;20037;-28
2021/12/16 02:59:39;;;;;;;2.78;1.20;;;;;;;14.93;42.49;97701.75;5030825;28;20069;-28
2021/12/16 03:02:10;;;;;;;1.75;1.20;;;;;;;14.92;42.42;97703.72;5030853;28;20032;-28
2021/12/16 03:04:38;;;;;;;1.55;1.20;;;;;;;14.92;42.32;97703.72;5030816;28;20033;-28
2021/12/16 03:07:06;;;;;;;2.00;1.00;;;;;;;14.90;42.28;97694.41;5030807;28;20053;-28
2021/12/16 03:15:00;;;;;;;1.48;1.08;;;;;;;14.90;42.10;97686.22;5036878;28;20029;-28
2021/12/16 03:17:39;;;;;;;1.80;1.17;;;;;;;14.88;42.32;97683.13;5036595;28;20057;-28
2021/12/16 03:20:14;;;;;;;2.53;1.08;;;;;;;14.85;42.39;97678.50;5036468;28;20037;-28
2021/12/16 03:28:13;;;;;;;1.48;1.10;;;;;;;14.87;42.52;97670.66;5036728;28;20037;-28
2021/12/16 03:38:35;;;;;;;2.00;1.25;;;;;;;14.82;42.48;97693.81;4994415;28;20022;-28
2021/12/16 03:41:01;;;;;;;2.20;1.25;;;;;;;14.84;42.50;97693.34;4994638;28;20039;-28
2021/12/16 03:43:29;;;;;;;3.22;1.40;;;;;;;14.87;42.34;97697.97;4994706;28;20046;-28
2021/12/16 03:48:52;;;;;;;1.83;1.23;;;;;;;14.82;42.40;97688.34;4994622;28;20029;-28
2021/12/16 03:51:23;;;;;;;1.73;1.38;;;;;;;14.83;42.48;97691.84;4994502;28;20113;-28
2021/12/16 03:53:51;;;;;;;1.98;1.33;;;;;;;14.80;42.50;97687.22;4994463;28;20030;-28
2021/12/16 03:56:18;;;;;;;1.70;1.33;;;;;;;14.83;42.45;97686.38;4994487;28;20435;-28
2021/12/16 03:58:45;;;;;;;1.88;1.27;;;;;;;14.86;42.32;97691.75;4994176;28;20038;-28
2021/12/16 04:01:16;;;;;;;1.40;1.17;;;;;;;14.89;42.14;97690.13;4994142;28;20054;-28
2021/12/16 04:03:42;;;;;;;1.60;1.38;;;;;;;14.88;42.04;97688.59;4994340;28;20065;-28
2021/12/16 04:06:08;;;;;;;2.25;1.13;;;;;;;14.81;42.28;97688.75;4993996;28;20042;-28
2021/12/16 04:08:34;;;;;;;3.25;1.30;;;;;;;14.79;42.47;97685.69;4994121;28;20043;-28
2021/12/16 04:11:12;;;;;;;2.00;1.58;;;;;;;14.72;42.54;97687.34;5003266;28;20046;-28
2021/12/16 04:13:54;;;;;;;1.70;1.15;;;;;;;14.78;42.27;97704.03;5035461;28;20087;-28
2021/12/16 04:16:48;;;;;;;2.05;1.45;;;;;;;14.79;42.20;97697.38;5035150;28;20028;-28
2021/12/16 04:19:17;;;;;;;2.00;1.80;;;;;;;14.68;42.37;97700.34;5033988;28;20037;-28
2021/12/16 04:21:47;;;;;;;1.67;1.20;;;;;;;14.70;42.45;97699.91;5035622;28;20026;-28
2021/12/16 04:24:12;;;;;;;2.20;1.40;;;;;;;14.73;42.50;97699.81;5034480;28;20036;-28
2021/12/16 04:26:40;;;;;;;1.50;1.20;;;;;;;14.69;42.46;97692.91;5035265;28;20033;-28
2021/12/16 04:29:06;;;;;;;2.00;1.50;;;;;;;14.76;42.39;97695.47;5034938;28;20029;-28
2021/12/16 04:31:35;;;;;;;2.10;1.42;;;;;;;14.77;42.37;97704.44;5035020;28;20025;-28
2021/12/16 04:34:02;;;;;;;1.80;1.58;;;;;;;14.73;42.31;97701.78;5035012;28;20029;-28
2021/12/16 04:36:28;;;;;;;1.33;1.13;;;;;;;14.74;42.39;97700.59;5034855;28;20029;-28
2021/12/16 04:38:54;;;;;;;2.75;1.25;;;;;;;14.72;42.42;97692.06;5034819;28;20087;-28
2021/12/16 04:41:20;;;;;;;2.53;1.50;;;;;;;14.74;42.13;97695.91;5033682;28;20025;-28
2021/12/16 04:43:52;;;;;;;1.65;1.52;;;;;;;14.82;42.31;97695.75;5034785;28;20365;-28
2021/12/16 04:46:23;;;;;;;2.38;1.25;;;;;;;14.83;42.04;97695.34;5034709;28;20049;-28
2021/12/16 04:48:55;;;;;;;2.15;1.45;;;;;;;14.77;42.21;97702.47;5034777;28;20025;-28
2021/12/16 04:51:23;;;;;;;2.40;1.50;;;;;;;14.77;42.16;97698.97;5034728;28;20017;-28
2021/12/16 04:53:49;;;;;;;1.83;1.17;;;;;;;14.67;42.48;97698.03;5034880;28;20131;-28
2021/12/16 04:56:16;;;;;;;3.35;1.52;;;;;;;14.72;42.26;97684.63;5034460;28;20025;-28
2021/12/16 04:58:45;;;;;;;1.63;1.40;;;;;;;14.78;42.28;97692.34;5034658;28;20389;-28
2021/12/16 05:01:11;;;;;;;1.90;1.50;;;;;;;14.72;42.38;97692.06;5034305;28;20128;-28
2021/12/16 05:03:37;;;;;;;1.98;1.40;;;;;;;14.72;42.20;97698.28;5033350;28;20220;-28
2021/12/16 05:06:04;;;;;;;1.60;1.30;;;;;;;14.72;42.22;97705.69;5034242;28;20471;-28
2021/12/16 05:08:31;;;;;;;2.33;1.20;;;;;;;14.77;41.98;97698.97;5034455;28;20053;-28
2021/12/16 05:11:00;;;;;;;1.67;1.17;;;;;;;14.69;42.40;97712.03;5034079;28;20124;-28
2021/12/16 05:13:26;;;;;;;2.80;1.98;;;;;;;14.75;42.03;97710.31;5033115;28;20391;-28
2021/12/16 05:15:57;;;;;;;2.00;1.50;;;;;;;14.68;42.43;97710.50;5034326;28;20079;-28
2021/12/16 05:18:30;;;;;;;1.45;1.33;;;;;;;14.74;41.94;97711.50;5034161;28;20029;-28
2021/12/16 05:20:57;;;;;;;;;;;;;;;14.69;42.32;97707.34;5034542;28;20070;-28
2021/12/16 05:28:41;;;;;;;2.33;1.15;;;;;;;14.66;42.17;97704.69;5033982;28;20395;-28
2021/12/16 05:31:09;;;;;;;2.08;1.40;;;;;;;14.74;41.89;97706.81;5033801;28;20410;-28
2021/12/16 05:33:34;;;;;;;2.50;1.70;;;;;;;14.68;42.38;97713.22;5033848;28;20028;-28
2021/12/16 05:36:00;;;;;;;2.58;1.40;;;;;;;14.67;42.17;97717.91;5033741;28;20021;-28
2021/12/16 05:38:28;;;;;;;1.42;1.20;;;;;;;14.62;42.19;97714.88;5033794;28;20096;-28
2021/12/16 05:40:55;;;;;;;2.00;1.80;;;;;;;14.71;42.25;97713.13;5033795;28;20468;-28
2021/12/16 05:43:24;;;;;;;2.08;1.67;;;;;;;14.66;42.16;97716.38;5033700;28;20036;-28
2021/12/16 05:45:51;;;;;;;1.98;1.45;;;;;;;14.59;42.14;97716.50;5033545;28;20018;-28
2021/12/16 05:48:21;;;;;;;1.60;1.40;;;;;;;14.66;42.01;97719.09;5033701;28;20079;-28
2021/12/16 05:50:50;;;;;;;1.60;1.40;;;;;;;14.55;42.46;97718.56;5033794;28;20022;-28
2021/12/16 05:53:17;;;;;;;1.63;1.20;;;;;;;14.61;42.04;97727.78;5033594;28;20029;-28
2021/12/16 05:55:43;;;;;;;1.40;1.25;;;;;;;14.59;42.16;97710.25;5033491;28;20021;-28
2021/12/16 05:58:09;;;;;;;1.98;1.75;;;;;;;14.56;42.25;97711.91;5033520;28;20360;-28
2021/12/16 06:00:40;;;;;;;2.10;1.45;;;;;;;14.53;42.21;97715.47;5033160;28;20515;-28
2021/12/16 06:03:06;;;;;;;1.88;1.55;;;;;;;14.57;42.10;97716.19;5033632;28;20037;-28
2021/12/16 06:05:32;;;;;;;2.22;1.50;;;;;;;14.57;42.01;97716.19;5033533;28;20380;-28
2021/12/16 06:07:57;;;;;;;1.90;1.55;;;;;;;14.62;42.02;97714.88;5033431;28;20037;-28
2021/12/16 06:13:04;;;;;;;1.90;1.65;;;;;;;14.55;42.40;97721.28;5033239;28;20057;-28
2021/12/16 06:26:51;;;;;;;1.73;1.50;;;;;;;14.61;41.96;97727.78;5030273;28;20082;-28
2021/12/16 06:29:08;;;;;;;2.85;1.45;;;;;;;14.58;42.08;97731.38;5031649;28;20460;-28
2021/12/16 06:31:34;;;;;;;2.60;1.60;;;;;;;14.67;42.03;97728.06;5030270;28;20104;-28
2021/12/16 06:34:00;;;;;;;2.35;1.65;;;;;;;14.71;41.76;97729.50;5031427;28;20446;-28
2021/12/16 06:36:26;;;;;;;1.85;1.50;;;;;;;14.66;42.02;97735.47;5031408;28;20395;-28
2021/12/16 06:38:52;;;;;;;1.50;1.10;;;;;;;14.59;42.21;97735.59;5031185;28;20025;-28
2021/12/16 06:41:19;;;;;;;2.17;1.50;;;;;;;14.66;42.07;97732.75;5029710;28;20056;-28
2021/12/16 06:43:46;;;;;;;2.42;1.65;;;;;;;14.64;41.99;97739.81;5031511;28;20103;-28
2021/12/16 06:46:16;;;;;;;1.73;1.50;;;;;;;14.64;42.10;97729.66;5031068;28;20025;-28
2021/12/16 06:48:45;;;;;;;2.90;1.73;;;;;;;14.61;41.84;97724.28;5034250;28;20029;-28
2021/12/16 06:51:21;;;;;;;2.80;1.65;;;;;;;14.58;42.15;97731.38;5034847;28;20029;-28
2021/12/16 06:54:03;;;;;;;2.45;1.55;;;;;;;14.54;42.09;97724.44;5035335;28;20466;-28
2021/12/16 06:56:36;;;;;;;2.10;1.60;;;;;;;14.54;42.01;97727.94;5035154;28;20017;-28
2021/12/16 06:59:07;;;;;;;3.03;1.80;;;;;;;14.63;42.00;97730.84;5034834;28;20029;-28
2021/12/16 07:04:04;;;;;;;4.47;2.50;;;;;;;14.61;42.12;97730.50;5034931;28;20079;-28
2021/12/16 07:06:31;;;;;;;3.17;2.28;;;;;;;14.57;42.08;97723.59;5034695;28;20056;-28
2021/12/16 07:09:09;;;;;;;3.42;2.10;;;;;;;14.59;41.98;97734.84;5034857;28;20029;-28
2021/12/16 07:11:40;;;;;;;2.80;1.70;;;;;;;14.58;41.87;97734.09;5034875;28;20484;-30
2021/12/16 07:14:11;;;;;;;2.63;1.77;;;;;;;14.61;41.95;97738.69;5034446;28;20037;-28
2021/12/16 07:16:37;;;;;;;3.28;2.03;;;;;;;14.47;42.00;97741.69;5033385;28;20492;-28
2021/12/16 07:19:03;;;;;;;2.55;1.80;;;;;;;14.59;41.86;97734.84;5034445;28;20196;-29
2021/12/16 07:21:28;;;;;;;3.35;2.00;;;;;;;14.60;42.02;97728.97;5034642;28;20025;-29
2021/12/16 07:23:54;;;;;;;3.15;2.00;;;;;;;14.54;41.94;97730.66;5034545;28;20041;-28
2021/12/16 07:26:20;;;;;;;3.55;2.00;;;;;;;14.57;42.08;97735.28;5034075;28;20498;-28
2021/12/16 07:28:45;;;;;;;3.35;1.90;;;;;;;14.47;42.19;97735.47;5034326;28;20443;-28
2021/12/16 07:31:11;;;;;;;2.65;1.90;;;;;;;14.55;41.86;97726.75;5034049;28;20801;-28
2021/12/16 07:33:37;;;;;;;4.03;2.17;;;;;;;14.52;42.01;97735.00;5033543;28;20096;-28
2021/12/16 07:36:02;;;;;;;5.72;2.13;;;;;;;14.56;41.93;97730.25;5033824;28;20028;-28
2021/12/16 07:38:30;;;;;;;3.55;2.00;;;;;;;14.49;42.34;97735.81;5033686;28;20548;-28
2021/12/16 07:40:57;;;;;;;3.47;2.00;;;;;;;14.54;42.03;97729.88;5032362;28;20108;-28
2021/12/16 07:43:27;;;;;;;2.10;1.60;;;;;;;14.54;41.70;97725.19;5033901;28;20029;-28
2021/12/16 07:45:55;;;;;;;2.53;1.75;;;;;;;14.50;42.23;97727.22;5034105;28;20037;-28
2021/12/16 07:48:23;;;;;;;3.03;1.80;;;;;;;14.50;41.85;97729.94;5033140;28;20033;-28
2021/12/16 07:50:52;;;;;;;3.03;2.00;;;;;;;14.49;41.75;97733.88;5033904;28;20057;-28
2021/12/16 07:53:17;;;;;;;2.47;1.80;;;;;;;14.53;41.75;97742.00;5034270;28;20031;-28
2021/12/16 07:55:43;;;;;;;2.65;1.83;;;;;;;14.54;41.74;97732.63;5033850;28;20021;-28
2021/12/16 07:58:10;;;;;;;3.80;2.08;;;;;;;14.44;42.09;97731.66;5033707;28;20076;-28
2021/12/16 08:00:37;;;;;;;3.42;1.77;;;;;;;14.43;41.99;97742.97;5032983;28;20048;-28
2021/12/16 08:03:05;;;;;;;3.05;1.98;;;;;;;14.41;42.14;97740.66;5033761;28;20456;-28
2021/12/16 08:05:35;;;;;;;2.78;1.92;;;;;;;14.30;42.13;97754.50;5033655;28;20030;-28
2021/12/16 08:08:02;;;;;;;2.90;1.67;;;;;;;14.48;41.95;97751.44;5033612;28;20029;-28
2021/12/16 08:10:28;;;;;;;2.85;1.85;;;;;;;14.45;41.79;97757.75;5032378;28;20068;-28
2021/12/16 08:12:54;;;;;;;2.28;2.00;;;;;;;14.35;42.40;97762.16;5033628;28;20122;-28
2021/12/16 08:15:22;;;;;;;3.80;2.00;;;;;;;14.35;42.00;97766.84;5024919;28;20025;-28
2021/12/16 08:17:48;;;;;;;2.30;1.83;;;;;;;14.44;41.93;97764.41;5065427;28;20499;-28
2021/12/16 08:20:18;;;;;;;2.67;2.00;;;;;;;14.44;41.79;97775.31;5033546;28;20036;-28
2021/12/16 08:22:49;;;;;;;2.10;1.80;;;;;;;14.40;41.87;97777.34;5033462;28;20021;-28
2021/12/16 08:25:16;;;;;;;2.08;1.83;;;;;;;14.45;41.61;97763.22;5033221;28;20025;-28
2021/12/16 08:27:42;;;;;;;2.70;1.80;;;;;;;14.43;42.06;97778.47;5033526;28;20163;-28
2021/12/16 08:30:11;;;;;;;2.38;1.60;;;;;;;14.46;41.77;97775.69;5033442;28;20037;-28
2021/12/16 08:32:37;;;;;;;2.63;1.70;;;;;;;14.40;42.46;97769.16;5033266;28;20060;-28
2021/12/16 08:35:05;;;;;;;3.53;2.10;;;;;;;14.36;42.08;97771.13;5033284;28;20084;-28
2021/12/16 08:37:31;;;;;;;3.90;2.22;;;;;;;14.54;41.74;97773.56;5033359;28;20063;-29
2021/12/16 08:39:56;;;;;;;2.15;1.63;;;;;;;14.32;42.37;97767.72;5031342;28;20096;-28
2021/12/16 08:42:22;;;;;;;2.50;1.83;;;;;;;14.48;41.76;97778.72;5032862;28;20057;-28
2021/12/16 08:44:48;;;;;;;2.35;1.73;;;;;;;14.57;41.69;97773.50;5032901;28;20033;-28
2021/12/16 08:47:19;;;;;;;3.80;2.03;;;;;;;14.52;41.78;97775.94;5032496;28;20032;-28
2021/12/16 08:49:45;;;;;;;2.55;1.80;;;;;;;14.55;41.67;97775.88;5032955;28;20072;-28
2021/12/16 08:52:17;;;;;;;2.67;1.63;;;;;;;14.47;41.89;97782.66;5033046;28;20116;-28
2021/12/16 08:54:43;;;;;;;3.55;1.88;;;;;;;14.46;41.96;97781.13;5033019;28;20445;-28
2021/12/16 08:57:09;;;;;;;2.58;1.58;;;;;;;14.35;42.31;97784.00;5064673;28;20028;-28
2021/12/16 08:59:35;;;;;;;2.55;1.80;;;;;;;14.40;41.97;97787.47;5032342;28;20049;-28
2021/12/16 09:02:01;;;;;;;2.30;1.63;;;;;;;14.43;42.10;97781.19;5032644;28;20384;-28
2021/12/16 09:04:27;;;;;;;4.30;2.15;;;;;;;14.18;42.21;97787.06;5032810;28;20041;-28
2021/12/16 09:06:55;;;;;;;2.25;1.60;;;;;;;14.33;42.13;97778.22;5032730;28;20029;-28
2021/12/16 09:09:21;;;;;;;3.22;1.67;;;;;;;14.32;42.17;97789.56;5064613;28;20446;-28
2021/12/16 09:12:06;;;;;;;2.78;1.63;;;;;;;14.34;41.99;97781.72;5032314;28;20029;-28
2021/12/16 09:14:35;;;;;;;2.95;1.60;;;;;;;14.33;42.44;97788.38;5026912;28;20017;-28
2021/12/16 09:17:02;;;;;;;3.60;1.88;;;;;;;14.38;42.08;97775.00;5012665;28;20033;-28
2021/12/16 09:19:28;;;;;;;2.92;2.05;;;;;;;14.45;42.09;97776.84;5012442;28;20026;-28
2021/12/16 09:21:53;;;;;;;2.72;1.70;;;;;;;14.38;42.16;97779.69;5012764;28;20035;-28
2021/12/16 09:24:19;;;;;;;2.50;1.50;;;;;;;14.32;42.24;97775.91;5012533;28;20399;-28
2021/12/16 09:26:46;;;;;;;2.35;1.77;;;;;;;14.05;42.89;97772.50;5012648;28;20460;-28
2021/12/16 09:29:11;;;;;;;3.35;1.90;;;;;;;14.14;42.77;97767.25;5011116;28;20036;-28
2021/12/16 09:31:38;;;;;;;2.70;1.77;;;;;;;14.30;42.37;97781.00;5012728;28;20124;-28
2021/12/16 09:34:08;;;;;;;3.67;1.83;;;;;;;14.35;42.43;97775.03;5012538;28;20061;-28
2021/12/16 09:36:39;;;;;;;3.20;1.67;;;;;;;14.44;42.33;97780.78;5012371;28;20040;-28
2021/12/16 09:39:07;;;;;;;3.58;1.90;;;;;;;14.39;42.24;97773.03;5011786;28;20040;-28
2021/12/16 09:41:33;;;;;;;4.05;2.40;;;;;;;13.52;43.53;97777.63;5009672;28;20034;-28
2021/12/16 09:44:00;;;;;;;2.95;2.20;;;;;;;13.79;43.46;97772.16;5011625;28;20025;-28
2021/12/16 09:46:27;;;;;;;3.30;2.15;;;;;;;14.14;42.59;97780.91;5011810;28;20029;-28
2021/12/16 09:48:56;;;;;;;2.88;2.20;;;;;;;14.35;42.08;97777.78;5011964;28;20065;-28
2021/12/16 09:51:25;;;;;;;2.97;1.90;;;;;;;14.28;42.57;97778.69;5011462;28;20053;-28
2021/12/16 09:53:56;;;;;;;3.38;2.10;;;;;;;14.39;42.10;97783.94;5011881;28;20025;-28
2021/12/16 09:56:24;;;;;;;3.17;1.75;;;;;;;14.53;42.05;97774.75;5012921;28;20535;-28
2021/12/16 09:58:50;;;;;;;4.32;2.28;;;;;;;14.34;42.18;97776.25;5012463;28;20408;-28
2021/12/16 10:01:19;;;;;;;2.72;2.25;;;;;;;14.39;42.22;97783.94;5013747;28;20091;-28
2021/12/16 10:03:48;;;;;;;4.22;2.10;;;;;;;14.14;42.86;97789.09;5012738;28;20025;-28
2021/12/16 10:06:15;;;;;;;4.60;2.05;;;;;;;14.33;42.37;97785.63;5012997;28;20041;-28
2021/12/16 10:08:41;;;;;;;3.45;2.03;;;;;;;14.23;42.65;97786.56;5013840;28;20030;-28
2021/12/16 10:11:07;;;;;;;3.40;2.15;;;;;;;14.36;42.38;97787.50;5013529;28;20026;-28
2021/12/16 10:14:30;;;;;;;4.57;2.40;;;;;;;14.14;42.77;97792.59;5013572;28;20041;-28
2021/12/16 10:19:06;;;;;;;3.95;2.50;;;;;;;14.40;42.37;97790.97;5013582;28;20531;-28
2021/12/16 10:21:31;;;;;;;2.58;1.90;;;;;;;14.57;41.89;97789.13;5013065;28;20034;-28
2021/12/16 10:23:57;;;;;;;3.65;1.92;;;;;;;14.27;42.26;97779.88;5013474;28;20075;-28
2021/12/16 10:26:26;;;;;;;2.97;2.08;;;;;;;14.38;42.29;97785.13;5013356;28;20034;-28
2021/12/16 10:28:56;;;;;;;3.42;2.30;;;;;;;14.37;42.33;97780.88;5013419;28;20026;-28
2021/12/16 10:31:27;;;;;;;3.80;2.40;;;;;;;14.43;42.08;97781.19;5013326;28;20037;-28
2021/12/16 10:33:57;;;;;;;4.00;2.33;;;;;;;14.37;42.42;97781.63;5013605;28;20026;-28
2021/12/16 10:36:41;;;;;;;3.55;2.28;;;;;;;14.59;41.92;97782.03;5013615;28;20014;-28
2021/12/16 10:39:13;;;;;;;5.13;3.40;;;;;;;14.06;43.05;97784.94;5013459;28;20021;-28
2021/12/16 10:41:40;;;;;;;4.68;2.65;;;;;;;14.24;42.67;97783.44;5013210;28;20030;-28
2021/12/16 10:44:17;;;;;;;5.10;2.67;;;;;;;14.46;42.21;97785.81;5013178;28;20030;-28
2021/12/16 10:47:15;;;;;;;4.00;2.63;;;;;;;14.40;42.33;97780.06;5013540;28;20030;-28
2021/12/16 10:49:44;;;;;;;4.43;2.92;;;;;;;14.36;42.42;97773.84;5022951;28;20092;-28
2021/12/16 10:52:12;;;;;;;6.75;3.47;;;;;;;14.28;42.66;97773.22;5013191;28;20033;-28
2021/12/16 10:54:49;;;;;;;6.95;3.60;;;;;;;14.37;42.48;97767.22;5013058;28;20029;-28
2021/12/16 10:57:18;;;;;;;7.53;4.10;;;;;;;14.58;42.08;97750.47;5013487;28;20369;-28
2021/12/16 10:59:48;;;;;;;6.20;3.50;;;;;;;14.28;42.64;97745.19;5012858;28;20096;-28
2021/12/16 11:02:22;;;;;;;7.22;3.60;;;;;;;14.49;42.21;97739.31;5013225;28;20038;-28
2021/12/16 11:05:01;;;;;;;5.78;3.53;;;;;;;14.66;41.81;97727.28;5013384;28;20452;-28
2021/12/16 11:07:31;;;;;;;6.63;3.63;;;;;;;14.62;42.29;97732.03;5013032;28;20033;-28
2021/12/16 11:10:06;;;;;;;7.03;4.10;;;;;;;14.50;42.14;97734.63;5013264;28;20105;-28
2021/12/16 11:12:40;;;;;;;6.85;3.78;;;;;;;14.46;42.10;97728.50;5013030;28;20080;-28
2021/12/16 11:15:32;;;;;;;5.68;3.33;;;;;;;14.35;42.77;97723.19;5013081;28;20022;-28
2021/12/16 11:18:06;;;;;;;7.40;4.10;;;;;;;14.50;42.28;97712.81;5013709;28;20042;-28
2021/12/16 11:20:41;;;;;;;4.78;3.30;;;;;;;14.67;41.88;97706.22;5012885;28;20032;-28
2021/12/16 11:23:11;;;;;;;9.40;4.47;;;;;;;14.29;42.78;97708.50;5012940;28;20065;-28
2021/12/16 11:25:43;;;;;;;7.28;3.70;;;;;;;14.52;42.51;97699.50;5013176;28;20022;-28
2021/12/16 11:28:17;;;;;;;6.13;3.42;;;;;;;14.62;42.22;97699.28;5013169;28;20029;-28
2021/12/16 11:31:05;;;;;;;6.07;3.42;;;;;;;14.41;42.56;97694.28;5011811;28;20026;-28
2021/12/16 11:33:42;;;;;;;4.47;3.13;;;;;;;14.27;43.05;97697.25;5013872;28;20101;-28
2021/12/16 11:36:13;;;;;;;7.50;3.03;;;;;;;14.15;42.83;97690.44;5016160;28;20461;-28
2021/12/16 11:38:39;;;;;;;5.15;3.63;;;;;;;14.19;42.43;97699.34;5016577;28;20038;-28
2021/12/16 11:41:13;;;;;;;8.13;3.72;;;;;;;14.30;42.61;97702.63;5016326;28;20028;-28
2021/12/16 11:43:47;;;;;;;5.13;2.92;;;;;;;14.14;42.91;97696.31;5016137;28;20036;-28
2021/12/16 11:46:21;;;;;;;5.80;3.70;;;;;;;14.14;42.68;97690.88;5016015;28;20034;-28
2021/12/16 11:48:49;;;;;;;4.78;3.03;;;;;;;14.35;42.95;97696.69;5016987;28;20104;-28
2021/12/16 11:51:32;;;;;;;4.68;3.03;;;;;;;14.53;42.22;97690.91;5030483;28;20032;-28
2021/12/16 11:54:12;;;;;;;5.65;3.33;;;;;;;14.67;42.01;97690.59;5033850;28;20044;-28
2021/12/16 11:56:44;;;;;;;9.52;3.20;;;;;;;14.64;42.22;97702.38;5017671;28;20034;-28
2021/12/16 11:59:11;;;;;;;4.72;3.10;;;;;;;14.68;41.86;97705.81;5012606;28;20408;-28
2021/12/16 12:01:40;;;;;;;5.47;3.45;;;;;;;14.60;41.98;97706.34;5013495;28;20032;-28
2021/12/16 12:04:10;;;;;;;6.18;4.18;;;;;;;14.46;42.24;97701.97;5013730;28;20096;-28
2021/12/16 12:06:38;;;;;;;5.63;3.22;;;;;;;14.41;42.40;97697.00;5014091;28;20026;-28
2021/12/16 12:09:06;;;;;;;4.63;3.08;;;;;;;14.65;42.28;97697.69;5031906;28;20076;-28
2021/12/16 12:11:35;;;;;;;4.82;3.00;;;;;;;14.41;42.49;97699.72;5033508;28;20025;-28
2021/12/16 12:14:08;;;;;;;5.50;3.88;;;;;;;14.44;42.60;97703.59;5033273;28;20383;-28
2021/12/16 12:16:40;;;;;;;4.38;3.40;;;;;;;14.42;42.63;97695.81;5033525;28;20104;-28
2021/12/16 12:19:18;;;;;;;5.30;3.35;;;;;;;14.66;42.08;97699.97;5033472;28;20039;-28
2021/12/16 12:21:56;;;;;;;5.30;3.20;;;;;;;14.67;42.30;97701.53;5033433;28;20025;-28
2021/12/16 12:24:34;;;;;;;6.05;3.35;;;;;;;14.45;42.52;97703.16;5032926;28;20036;-28
2021/12/16 12:27:05;;;;;;;5.78;3.13;;;;;;;14.69;42.23;97704.59;5032996;28;20075;-28
2021/12/16 12:29:46;;;;;;;5.65;2.90;;;;;;;14.73;41.85;97694.38;5033135;28;20037;-28
2021/12/16 12:32:31;;;;;;;5.32;3.30;;;;;;;14.69;42.01;97704.59;5033190;28;20075;-28
2021/12/16 12:35:06;;;;;;;4.93;3.08;;;;;;;14.77;41.96;97701.72;5031430;28;20375;-28
2021/12/16 12:37:34;;;;;;;4.60;2.75;;;;;;;14.72;41.93;97695.56;5032594;28;20045;-29
2021/12/16 12:40:04;;;;;;;4.45;2.90;;;;;;;14.74;42.19;97698.63;5032785;28;20025;-29
2021/12/16 12:42:30;;;;;;;4.57;2.88;;;;;;;14.74;42.11;97695.13;5032731;28;20072;-30
2021/12/16 12:44:55;;;;;;;4.13;3.08;;;;;;;14.79;42.17;97704.81;5018682;28;20033;-29
2021/12/16 12:47:28;;;;;;;4.93;3.08;;;;;;;14.57;42.37;97691.59;5012815;28;20087;-29
2021/12/16 12:50:06;;;;;;;3.63;2.80;;;;;;;14.70;42.41;97689.00;5012555;28;20367;-29
2021/12/16 12:52:32;;;;;;;3.55;2.33;;;;;;;14.62;42.20;97693.81;5012886;28;20387;-30
2021/12/16 12:55:04;;;;;;;3.92;2.70;;;;;;;14.71;42.00;97696.75;5013033;28;20034;-29
2021/12/16 12:57:33;;;;;;;4.38;3.35;;;;;;;14.31;42.53;97696.00;5013077;28;20396;-29
2021/12/16 12:59:59;;;;;;;3.88;2.67;;;;;;;14.57;42.67;97690.84;5012839;28;20054;-29
2021/12/16 13:02:35;;;;;;;4.97;3.22;;;;;;;14.32;42.84;97689.34;5012466;28;20491;-29
2021/12/16 13:05:04;;;;;;;4.40;2.70;;;;;;;14.32;43.11;97696.78;5012466;28;20112;-29
2021/12/16 13:07:43;;;;;;;3.90;2.70;;;;;;;14.58;42.64;97703.28;5010976;28;20025;-28
2021/12/16 13:10:11;;;;;;;4.28;2.70;;;;;;;14.50;42.53;97697.19;5012799;28;20034;-28
2021/12/16 13:12:45;;;;;;;5.20;2.70;;;;;;;14.67;42.31;97701.53;5043837;28;20057;-28
2021/12/16 13:15:33;;;;;;;3.65;2.58;;;;;;;14.40;43.38;97698.19;5012705;28;20033;-28
2021/12/16 13:23:44;;;;;;;4.97;2.60;;;;;;;14.63;42.69;97700.06;5012349;28;20279;-28
2021/12/16 13:32:09;;;;;;;4.10;2.83;;;;;;;14.73;42.44;97710.75;5012224;28;20069;-29
2021/12/16 13:34:51;;;;;;;5.13;2.80;;;;;;;14.73;42.01;97693.59;5009732;28;20030;-29
2021/12/16 13:37:29;;;;;;;2.77;2.33;;;;;;;14.71;42.51;97693.28;5011808;28;20144;-28
2021/12/16 13:40:04;;;;;;;4.38;2.58;;;;;;;14.66;42.33;97689.06;5011960;28;20021;-28
2021/12/16 13:42:49;;;;;;;3.83;2.38;;;;;;;14.70;42.22;97700.69;5011783;28;20079;-28
2021/12/16 13:45:25;;;;;;;3.35;2.30;;;;;;;14.70;42.24;97699.91;5027226;28;20541;-30
2021/12/16 13:59:45;;;;;;;3.67;2.20;;;;;;;14.62;42.70;97693.81;5031288;28;20083;-28
2021/12/16 14:04:55;;;;;;;2.95;2.20;;;;;;;14.60;42.89;97706.34;5031484;28;20044;-28
2021/12/16 14:07:53;;;;;;;4.72;2.70;;;;;;;14.44;43.07;97703.59;5031403;28;20025;-28
2021/12/16 14:10:29;;;;;;;4.50;2.75;;;;;;;14.60;42.82;97701.66;5031216;28;20523;-28
2021/12/16 14:25:21;;;;;;;3.92;2.58;;;;;;;14.69;42.43;97715.53;5031093;28;20281;-28
2021/12/16 14:49:52;;;;;;;4.40;2.80;;;;;;;14.58;42.55;97730.59;5011473;28;20412;-28
2021/12/16 14:52:28;;;;;;;4.53;2.72;;;;;;;14.67;42.29;97734.28;5011196;28;20068;-28
2021/12/16 14:55:01;;;;;;;6.30;3.40;;;;;;;14.30;43.21;97729.16;5011388;28;20029;-28
2021/12/16 14:57:32;;;;;;;3.53;2.73;;;;;;;14.64;42.38;97726.94;5011274;28;20095;-28
2021/12/16 15:00:06;;;;;;;5.25;3.30;;;;;;;14.64;42.55;97732.41;5011020;28;20403;-28
2021/12/16 15:02:34;;;;;;;4.97;3.30;;;;;;;14.67;42.52;97728.06;5009888;28;20088;-28
2021/12/16 15:04:59;;;;;;;4.20;3.28;;;;;;;14.67;42.43;97731.56;5009913;28;20078;-28
2021/12/16 15:07:27;;;;;;;4.50;3.17;;;;;;;14.70;42.37;97736.19;5011397;28;20033;-28
2021/12/16 15:09:55;;;;;;;5.70;2.97;;;;;;;14.61;42.40;97730.50;5014652;28;20061;-28
2021/12/16 15:12:41;;;;;;;4.88;3.13;;;;;;;14.65;42.35;97725.75;5015049;28;20088;-28
2021/12/16 15:40:17;;;;;;;4.15;2.67;;;;;;;14.49;42.58;97722.19;5014418;28;20038;-28
2021/12/16 15:42:53;;;;;;;6.30;3.13;;;;;;;14.47;42.81;97719.09;5014219;28;20050;-28
2021/12/16 15:45:47;;;;;;;4.80;3.45;;;;;;;14.37;43.11;97715.38;5030160;28;20033;-28
2021/12/16 15:48:17;;;;;;;4.15;2.97;;;;;;;14.49;42.56;97717.50;5033945;28;20049;-28
2021/12/16 15:50:59;;;;;;;6.15;3.17;;;;;;;14.58;42.56;97725.91;5033774;28;20021;-28